sensor_id;sensor_type;location;lat;lon;timestamp;P1;durP1;ratioP1;P2;durP2;ratioP2
36709;SDS011;22694;51.040;3.684;2023-02-08T00:00:49;8.25;;;6.15;;
36709;SDS011;22694;51.040;3.684;2023-02-08T00:03:15;6.82;;;6.10;;
36709;SDS011;22694;51.040;3.684;2023-02-08T00:05:41;7.20;;;6.50;;
36709;SDS011;22694;51.040;3.684;2023-02-08T00:08:06;8.25;;;6.57;;
36709;SDS011;22694;51.040;3.684;2023-02-08T00:10:32;6.43;;;5.72;;
36709;SDS011;22694;51.040;3.684;2023-02-08T00:12:58;7.32;;;6.40;;
36709;SDS011;22694;51.040;3.684;2023-02-08T00:15:25;6.63;;;5.57;;
36709;SDS011;22694;51.040;3.684;2023-02-08T00:17:51;6.28;;;5.68;;
36709;SDS011;22694;51.040;3.684;2023-02-08T00:20:16;6.55;;;5.90;;
36709;SDS011;22694;51.040;3.684;2023-02-08T00:22:42;8.57;;;6.97;;
36709;SDS011;22694;51.040;3.684;2023-02-08T00:25:08;7.35;;;6.13;;
36709;SDS011;22694;51.040;3.684;2023-02-08T00:27:34;7.97;;;6.10;;
36709;SDS011;22694;51.040;3.684;2023-02-08T00:30:00;6.38;;;5.78;;
36709;SDS011;22694;51.040;3.684;2023-02-08T00:32:25;7.03;;;6.18;;
36709;SDS011;22694;51.040;3.684;2023-02-08T00:34:51;7.07;;;6.15;;
36709;SDS011;22694;51.040;3.684;2023-02-08T00:37:17;7.82;;;6.63;;
36709;SDS011;22694;51.040;3.684;2023-02-08T00:39:42;7.50;;;6.70;;
36709;SDS011;22694;51.040;3.684;2023-02-08T00:42:08;8.77;;;6.75;;
36709;SDS011;22694;51.040;3.684;2023-02-08T00:44:33;7.63;;;6.38;;
36709;SDS011;22694;51.040;3.684;2023-02-08T00:46:59;8.95;;;6.88;;
36709;SDS011;22694;51.040;3.684;2023-02-08T00:49:25;9.27;;;7.05;;
36709;SDS011;22694;51.040;3.684;2023-02-08T00:51:50;11.15;;;7.18;;
36709;SDS011;22694;51.040;3.684;2023-02-08T00:54:17;7.90;;;6.82;;
36709;SDS011;22694;51.040;3.684;2023-02-08T00:56:43;8.32;;;7.07;;
36709;SDS011;22694;51.040;3.684;2023-02-08T00:59:09;11.98;;;7.15;;
36709;SDS011;22694;51.040;3.684;2023-02-08T01:01:35;8.50;;;7.00;;
36709;SDS011;22694;51.040;3.684;2023-02-08T01:04:02;8.40;;;7.50;;
36709;SDS011;22694;51.040;3.684;2023-02-08T01:06:28;7.57;;;6.82;;
36709;SDS011;22694;51.040;3.684;2023-02-08T01:08:53;8.10;;;6.80;;
36709;SDS011;22694;51.040;3.684;2023-02-08T01:11:20;8.35;;;7.07;;
36709;SDS011;22694;51.040;3.684;2023-02-08T01:13:49;7.68;;;6.60;;
36709;SDS011;22694;51.040;3.684;2023-02-08T01:16:21;7.63;;;6.82;;
36709;SDS011;22694;51.040;3.684;2023-02-08T01:18:50;8.02;;;6.97;;
36709;SDS011;22694;51.040;3.684;2023-02-08T01:21:21;7.75;;;6.75;;
36709;SDS011;22694;51.040;3.684;2023-02-08T01:23:49;8.98;;;7.45;;
36709;SDS011;22694;51.040;3.684;2023-02-08T01:26:15;8.00;;;7.20;;
36709;SDS011;22694;51.040;3.684;2023-02-08T01:28:42;8.15;;;7.15;;
36709;SDS011;22694;51.040;3.684;2023-02-08T01:31:09;9.32;;;7.20;;
36709;SDS011;22694;51.040;3.684;2023-02-08T01:33:37;9.13;;;7.40;;
36709;SDS011;22694;51.040;3.684;2023-02-08T01:36:03;8.32;;;7.35;;
36709;SDS011;22694;51.040;3.684;2023-02-08T01:38:31;10.00;;;7.95;;
36709;SDS011;22694;51.040;3.684;2023-02-08T01:40:58;7.80;;;6.93;;
36709;SDS011;22694;51.040;3.684;2023-02-08T01:43:26;8.43;;;7.13;;
36709;SDS011;22694;51.040;3.684;2023-02-08T01:45:54;10.88;;;8.13;;
36709;SDS011;22694;51.040;3.684;2023-02-08T01:53:26;8.38;;;7.32;;
36709;SDS011;22694;51.040;3.684;2023-02-08T01:55:55;8.10;;;7.18;;
36709;SDS011;22694;51.040;3.684;2023-02-08T01:58:23;9.02;;;7.38;;
36709;SDS011;22694;51.040;3.684;2023-02-08T02:00:52;9.85;;;7.88;;
36709;SDS011;22694;51.040;3.684;2023-02-08T02:03:18;8.70;;;7.68;;
36709;SDS011;22694;51.040;3.684;2023-02-08T02:05:46;8.45;;;7.47;;
36709;SDS011;22694;51.040;3.684;2023-02-08T02:08:15;9.27;;;7.68;;
36709;SDS011;22694;51.040;3.684;2023-02-08T02:10:41;9.82;;;8.27;;
36709;SDS011;22694;51.040;3.684;2023-02-08T02:13:09;10.00;;;7.75;;
36709;SDS011;22694;51.040;3.684;2023-02-08T02:15:37;9.68;;;8.05;;
36709;SDS011;22694;51.040;3.684;2023-02-08T02:18:04;8.75;;;7.47;;
36709;SDS011;22694;51.040;3.684;2023-02-08T02:26:18;8.77;;;7.60;;
36709;SDS011;22694;51.040;3.684;2023-02-08T02:29:23;9.23;;;8.23;;
36709;SDS011;22694;51.040;3.684;2023-02-08T02:43:10;8.45;;;7.55;;
36709;SDS011;22694;51.040;3.684;2023-02-08T02:51:21;8.57;;;7.25;;
36709;SDS011;22694;51.040;3.684;2023-02-08T02:56:46;9.07;;;7.30;;
36709;SDS011;22694;51.040;3.684;2023-02-08T02:59:15;8.65;;;7.35;;
36709;SDS011;22694;51.040;3.684;2023-02-08T03:01:42;7.90;;;6.95;;
36709;SDS011;22694;51.040;3.684;2023-02-08T03:04:17;9.25;;;7.07;;
36709;SDS011;22694;51.040;3.684;2023-02-08T03:20:32;9.27;;;7.30;;
36709;SDS011;22694;51.040;3.684;2023-02-08T03:25:45;7.68;;;6.88;;
36709;SDS011;22694;51.040;3.684;2023-02-08T03:33:41;7.53;;;6.68;;
36709;SDS011;22694;51.040;3.684;2023-02-08T03:39:14;8.20;;;6.68;;
36709;SDS011;22694;51.040;3.684;2023-02-08T03:41:45;7.53;;;6.80;;
36709;SDS011;22694;51.040;3.684;2023-02-08T03:44:15;7.57;;;6.38;;
36709;SDS011;22694;51.040;3.684;2023-02-08T03:47:32;8.73;;;6.85;;
36709;SDS011;22694;51.040;3.684;2023-02-08T03:49:40;8.05;;;6.55;;
36709;SDS011;22694;51.040;3.684;2023-02-08T03:52:09;6.47;;;5.88;;
36709;SDS011;22694;51.040;3.684;2023-02-08T03:54:37;8.77;;;6.70;;
36709;SDS011;22694;51.040;3.684;2023-02-08T03:57:17;7.32;;;6.13;;
36709;SDS011;22694;51.040;3.684;2023-02-08T03:59:50;7.80;;;6.53;;
36709;SDS011;22694;51.040;3.684;2023-02-08T04:02:30;7.33;;;5.90;;
36709;SDS011;22694;51.040;3.684;2023-02-08T04:05:01;5.30;;;4.68;;
36709;SDS011;22694;51.040;3.684;2023-02-08T04:07:28;6.50;;;5.82;;
36709;SDS011;22694;51.040;3.684;2023-02-08T04:09:54;7.53;;;6.57;;
36709;SDS011;22694;51.040;3.684;2023-02-08T04:12:20;8.50;;;7.18;;
36709;SDS011;22694;51.040;3.684;2023-02-08T04:14:46;6.13;;;5.53;;
36709;SDS011;22694;51.040;3.684;2023-02-08T04:17:12;7.38;;;6.50;;
36709;SDS011;22694;51.040;3.684;2023-02-08T04:19:37;7.03;;;5.80;;
36709;SDS011;22694;51.040;3.684;2023-02-08T04:22:03;7.45;;;6.35;;
36709;SDS011;22694;51.040;3.684;2023-02-08T04:24:29;7.28;;;6.55;;
36709;SDS011;22694;51.040;3.684;2023-02-08T04:26:54;6.95;;;6.05;;
36709;SDS011;22694;51.040;3.684;2023-02-08T04:29:20;7.85;;;6.72;;
36709;SDS011;22694;51.040;3.684;2023-02-08T04:31:46;8.45;;;6.68;;
36709;SDS011;22694;51.040;3.684;2023-02-08T04:34:11;7.68;;;6.68;;
36709;SDS011;22694;51.040;3.684;2023-02-08T04:36:37;7.72;;;6.43;;
36709;SDS011;22694;51.040;3.684;2023-02-08T04:39:03;7.90;;;6.43;;
36709;SDS011;22694;51.040;3.684;2023-02-08T04:41:29;7.00;;;6.18;;
36709;SDS011;22694;51.040;3.684;2023-02-08T04:43:54;8.82;;;6.68;;
36709;SDS011;22694;51.040;3.684;2023-02-08T04:46:20;8.32;;;7.15;;
36709;SDS011;22694;51.040;3.684;2023-02-08T04:48:46;7.78;;;6.57;;
36709;SDS011;22694;51.040;3.684;2023-02-08T04:51:11;8.90;;;6.50;;
36709;SDS011;22694;51.040;3.684;2023-02-08T04:53:37;7.10;;;6.25;;
36709;SDS011;22694;51.040;3.684;2023-02-08T04:56:02;8.65;;;6.72;;
36709;SDS011;22694;51.040;3.684;2023-02-08T04:58:29;8.38;;;6.97;;
36709;SDS011;22694;51.040;3.684;2023-02-08T05:00:54;7.50;;;6.65;;
36709;SDS011;22694;51.040;3.684;2023-02-08T05:03:20;7.47;;;6.57;;
36709;SDS011;22694;51.040;3.684;2023-02-08T05:05:46;9.00;;;6.72;;
36709;SDS011;22694;51.040;3.684;2023-02-08T05:08:19;7.72;;;6.75;;
36709;SDS011;22694;51.040;3.684;2023-02-08T05:10:45;7.30;;;6.60;;
36709;SDS011;22694;51.040;3.684;2023-02-08T05:13:11;8.48;;;6.72;;
36709;SDS011;22694;51.040;3.684;2023-02-08T05:15:36;8.00;;;6.85;;
36709;SDS011;22694;51.040;3.684;2023-02-08T05:18:02;7.68;;;6.72;;
36709;SDS011;22694;51.040;3.684;2023-02-08T05:20:27;8.57;;;7.10;;
36709;SDS011;22694;51.040;3.684;2023-02-08T05:22:54;7.13;;;6.43;;
36709;SDS011;22694;51.040;3.684;2023-02-08T05:25:20;7.38;;;6.63;;
36709;SDS011;22694;51.040;3.684;2023-02-08T05:27:45;7.68;;;6.63;;
36709;SDS011;22694;51.040;3.684;2023-02-08T05:30:11;7.60;;;6.72;;
36709;SDS011;22694;51.040;3.684;2023-02-08T05:32:37;7.95;;;6.35;;
36709;SDS011;22694;51.040;3.684;2023-02-08T05:35:03;7.57;;;6.35;;
36709;SDS011;22694;51.040;3.684;2023-02-08T05:37:28;7.95;;;6.90;;
36709;SDS011;22694;51.040;3.684;2023-02-08T05:39:54;10.13;;;6.45;;
36709;SDS011;22694;51.040;3.684;2023-02-08T05:42:20;8.00;;;6.72;;
36709;SDS011;22694;51.040;3.684;2023-02-08T05:44:46;7.47;;;6.63;;
36709;SDS011;22694;51.040;3.684;2023-02-08T05:47:11;8.52;;;6.82;;
36709;SDS011;22694;51.040;3.684;2023-02-08T05:49:37;8.93;;;6.57;;
36709;SDS011;22694;51.040;3.684;2023-02-08T05:52:03;8.48;;;6.90;;
36709;SDS011;22694;51.040;3.684;2023-02-08T05:54:28;7.55;;;6.40;;
36709;SDS011;22694;51.040;3.684;2023-02-08T05:56:54;8.48;;;7.25;;
36709;SDS011;22694;51.040;3.684;2023-02-08T05:59:20;8.35;;;6.45;;
36709;SDS011;22694;51.040;3.684;2023-02-08T06:01:45;9.10;;;6.50;;
36709;SDS011;22694;51.040;3.684;2023-02-08T06:04:11;7.40;;;6.55;;
36709;SDS011;22694;51.040;3.684;2023-02-08T06:06:36;9.27;;;7.10;;
36709;SDS011;22694;51.040;3.684;2023-02-08T06:09:02;7.20;;;6.50;;
36709;SDS011;22694;51.040;3.684;2023-02-08T06:11:28;8.77;;;7.68;;
36709;SDS011;22694;51.040;3.684;2023-02-08T06:13:54;8.43;;;7.10;;
36709;SDS011;22694;51.040;3.684;2023-02-08T06:16:20;8.20;;;6.95;;
36709;SDS011;22694;51.040;3.684;2023-02-08T06:18:45;8.15;;;7.35;;
36709;SDS011;22694;51.040;3.684;2023-02-08T06:21:11;9.52;;;7.55;;
36709;SDS011;22694;51.040;3.684;2023-02-08T06:23:37;9.00;;;7.70;;
36709;SDS011;22694;51.040;3.684;2023-02-08T06:26:03;7.80;;;6.95;;
36709;SDS011;22694;51.040;3.684;2023-02-08T06:28:28;9.23;;;7.80;;
36709;SDS011;22694;51.040;3.684;2023-02-08T06:30:54;9.20;;;7.70;;
36709;SDS011;22694;51.040;3.684;2023-02-08T06:33:20;8.68;;;6.85;;
36709;SDS011;22694;51.040;3.684;2023-02-08T06:35:46;8.23;;;7.38;;
36709;SDS011;22694;51.040;3.684;2023-02-08T06:38:14;8.30;;;7.32;;
36709;SDS011;22694;51.040;3.684;2023-02-08T06:40:40;8.32;;;7.40;;
36709;SDS011;22694;51.040;3.684;2023-02-08T06:43:06;8.93;;;8.02;;
36709;SDS011;22694;51.040;3.684;2023-02-08T06:45:31;9.05;;;7.80;;
36709;SDS011;22694;51.040;3.684;2023-02-08T06:47:57;9.27;;;7.53;;
36709;SDS011;22694;51.040;3.684;2023-02-08T06:50:23;8.68;;;7.65;;
36709;SDS011;22694;51.040;3.684;2023-02-08T06:52:48;8.90;;;7.72;;
36709;SDS011;22694;51.040;3.684;2023-02-08T06:55:14;9.05;;;7.90;;
36709;SDS011;22694;51.040;3.684;2023-02-08T06:57:40;8.85;;;7.70;;
36709;SDS011;22694;51.040;3.684;2023-02-08T07:00:06;9.07;;;8.00;;
36709;SDS011;22694;51.040;3.684;2023-02-08T07:02:32;8.85;;;7.60;;
36709;SDS011;22694;51.040;3.684;2023-02-08T07:04:57;9.45;;;7.50;;
36709;SDS011;22694;51.040;3.684;2023-02-08T07:07:23;9.00;;;7.47;;
36709;SDS011;22694;51.040;3.684;2023-02-08T07:09:49;8.27;;;5.93;;
36709;SDS011;22694;51.040;3.684;2023-02-08T07:12:15;5.00;;;4.45;;
36709;SDS011;22694;51.040;3.684;2023-02-08T07:14:41;9.43;;;7.47;;
36709;SDS011;22694;51.040;3.684;2023-02-08T07:17:08;9.98;;;7.60;;
36709;SDS011;22694;51.040;3.684;2023-02-08T07:19:35;9.57;;;7.50;;
36709;SDS011;22694;51.040;3.684;2023-02-08T07:22:01;8.90;;;7.18;;
36709;SDS011;22694;51.040;3.684;2023-02-08T07:24:32;9.00;;;7.47;;
36709;SDS011;22694;51.040;3.684;2023-02-08T07:27:02;9.90;;;7.85;;
36709;SDS011;22694;51.040;3.684;2023-02-08T07:29:29;10.13;;;8.15;;
36709;SDS011;22694;51.040;3.684;2023-02-08T07:31:56;9.90;;;8.10;;
36709;SDS011;22694;51.040;3.684;2023-02-08T07:34:23;9.70;;;7.63;;
36709;SDS011;22694;51.040;3.684;2023-02-08T07:36:49;10.07;;;7.78;;
36709;SDS011;22694;51.040;3.684;2023-02-08T07:39:14;10.50;;;8.40;;
36709;SDS011;22694;51.040;3.684;2023-02-08T07:41:40;11.23;;;8.30;;
36709;SDS011;22694;51.040;3.684;2023-02-08T07:44:06;9.98;;;8.30;;
36709;SDS011;22694;51.040;3.684;2023-02-08T07:46:31;10.93;;;9.32;;
36709;SDS011;22694;51.040;3.684;2023-02-08T07:48:57;9.75;;;8.75;;
36709;SDS011;22694;51.040;3.684;2023-02-08T07:51:23;10.23;;;8.43;;
36709;SDS011;22694;51.040;3.684;2023-02-08T07:53:49;13.75;;;9.20;;
36709;SDS011;22694;51.040;3.684;2023-02-08T07:56:14;13.52;;;9.68;;
36709;SDS011;22694;51.040;3.684;2023-02-08T07:58:40;12.50;;;9.15;;
36709;SDS011;22694;51.040;3.684;2023-02-08T08:01:06;11.07;;;9.32;;
36709;SDS011;22694;51.040;3.684;2023-02-08T08:03:31;12.95;;;9.27;;
36709;SDS011;22694;51.040;3.684;2023-02-08T08:05:57;10.82;;;9.55;;
36709;SDS011;22694;51.040;3.684;2023-02-08T08:08:23;11.43;;;8.95;;
36709;SDS011;22694;51.040;3.684;2023-02-08T08:10:48;10.75;;;9.35;;
36709;SDS011;22694;51.040;3.684;2023-02-08T08:13:14;12.45;;;9.13;;
36709;SDS011;22694;51.040;3.684;2023-02-08T08:15:40;12.85;;;10.15;;
36709;SDS011;22694;51.040;3.684;2023-02-08T08:18:06;12.05;;;9.40;;
36709;SDS011;22694;51.040;3.684;2023-02-08T08:20:32;12.35;;;9.70;;
36709;SDS011;22694;51.040;3.684;2023-02-08T08:22:57;13.40;;;10.20;;
36709;SDS011;22694;51.040;3.684;2023-02-08T08:25:24;10.18;;;8.85;;
36709;SDS011;22694;51.040;3.684;2023-02-08T08:27:50;12.35;;;10.15;;
36709;SDS011;22694;51.040;3.684;2023-02-08T08:30:16;12.63;;;9.82;;
36709;SDS011;22694;51.040;3.684;2023-02-08T08:32:42;13.75;;;10.63;;
36709;SDS011;22694;51.040;3.684;2023-02-08T08:35:08;13.70;;;10.07;;
36709;SDS011;22694;51.040;3.684;2023-02-08T08:37:34;13.20;;;10.45;;
36709;SDS011;22694;51.040;3.684;2023-02-08T08:40:00;12.57;;;10.27;;
36709;SDS011;22694;51.040;3.684;2023-02-08T08:42:26;13.73;;;10.25;;
36709;SDS011;22694;51.040;3.684;2023-02-08T08:44:52;15.50;;;10.10;;
36709;SDS011;22694;51.040;3.684;2023-02-08T08:47:18;15.82;;;10.57;;
36709;SDS011;22694;51.040;3.684;2023-02-08T08:49:44;14.57;;;10.65;;
36709;SDS011;22694;51.040;3.684;2023-02-08T08:52:10;15.63;;;10.82;;
36709;SDS011;22694;51.040;3.684;2023-02-08T08:54:36;15.63;;;10.50;;
36709;SDS011;22694;51.040;3.684;2023-02-08T08:57:03;15.70;;;11.43;;
36709;SDS011;22694;51.040;3.684;2023-02-08T08:59:29;15.68;;;11.00;;
36709;SDS011;22694;51.040;3.684;2023-02-08T09:01:55;14.45;;;11.32;;
36709;SDS011;22694;51.040;3.684;2023-02-08T09:04:20;13.95;;;10.55;;
36709;SDS011;22694;51.040;3.684;2023-02-08T09:06:50;13.93;;;10.40;;
36709;SDS011;22694;51.040;3.684;2023-02-08T09:09:17;13.20;;;10.55;;
36709;SDS011;22694;51.040;3.684;2023-02-08T09:11:44;12.82;;;10.60;;
36709;SDS011;22694;51.040;3.684;2023-02-08T09:14:10;15.02;;;11.10;;
36709;SDS011;22694;51.040;3.684;2023-02-08T09:16:36;15.75;;;10.93;;
36709;SDS011;22694;51.040;3.684;2023-02-08T09:19:03;13.50;;;10.27;;
36709;SDS011;22694;51.040;3.684;2023-02-08T09:21:30;13.20;;;10.48;;
36709;SDS011;22694;51.040;3.684;2023-02-08T09:23:56;16.23;;;10.88;;
36709;SDS011;22694;51.040;3.684;2023-02-08T09:26:22;15.23;;;10.43;;
36709;SDS011;22694;51.040;3.684;2023-02-08T09:28:49;15.65;;;11.15;;
36709;SDS011;22694;51.040;3.684;2023-02-08T09:31:19;12.75;;;9.95;;
36709;SDS011;22694;51.040;3.684;2023-02-08T09:33:47;14.85;;;10.52;;
36709;SDS011;22694;51.040;3.684;2023-02-08T09:36:14;12.70;;;10.00;;
36709;SDS011;22694;51.040;3.684;2023-02-08T09:38:40;14.10;;;10.27;;
36709;SDS011;22694;51.040;3.684;2023-02-08T09:46:43;11.45;;;9.50;;
36709;SDS011;22694;51.040;3.684;2023-02-08T09:49:15;13.18;;;9.77;;
36709;SDS011;22694;51.040;3.684;2023-02-08T09:51:52;13.75;;;9.60;;
36709;SDS011;22694;51.040;3.684;2023-02-08T09:54:32;14.38;;;9.57;;
36709;SDS011;22694;51.040;3.684;2023-02-08T09:57:03;12.57;;;9.65;;
36709;SDS011;22694;51.040;3.684;2023-02-08T09:59:32;10.80;;;9.30;;
36709;SDS011;22694;51.040;3.684;2023-02-08T10:04:59;11.00;;;8.45;;
36709;SDS011;22694;51.040;3.684;2023-02-08T10:07:30;15.65;;;9.15;;
36709;SDS011;22694;51.040;3.684;2023-02-08T10:10:03;8.98;;;7.20;;
36709;SDS011;22694;51.040;3.684;2023-02-08T10:17:44;7.20;;;5.80;;
36709;SDS011;22694;51.040;3.684;2023-02-08T10:34:46;7.55;;;6.13;;
36709;SDS011;22694;51.040;3.684;2023-02-08T10:37:17;6.53;;;5.75;;
36709;SDS011;22694;51.040;3.684;2023-02-08T10:39:44;9.52;;;5.88;;
36709;SDS011;22694;51.040;3.684;2023-02-08T10:42:12;6.80;;;5.97;;
36709;SDS011;22694;51.040;3.684;2023-02-08T10:44:46;7.80;;;5.40;;
36709;SDS011;22694;51.040;3.684;2023-02-08T10:53:08;7.10;;;5.50;;
36709;SDS011;22694;51.040;3.684;2023-02-08T10:55:40;6.97;;;5.72;;
36709;SDS011;22694;51.040;3.684;2023-02-08T10:58:09;8.07;;;5.82;;
36709;SDS011;22694;51.040;3.684;2023-02-08T11:00:39;8.00;;;6.35;;
36709;SDS011;22694;51.040;3.684;2023-02-08T11:05:40;8.02;;;5.90;;
36709;SDS011;22694;51.040;3.684;2023-02-08T11:08:13;5.65;;;5.10;;
36709;SDS011;22694;51.040;3.684;2023-02-08T11:10:42;6.45;;;4.93;;
36709;SDS011;22694;51.040;3.684;2023-02-08T11:13:21;6.32;;;4.75;;
36709;SDS011;22694;51.040;3.684;2023-02-08T11:15:51;5.93;;;4.97;;
36709;SDS011;22694;51.040;3.684;2023-02-08T11:20:46;5.38;;;4.70;;
36709;SDS011;22694;51.040;3.684;2023-02-08T11:23:20;7.10;;;4.97;;
36709;SDS011;22694;51.040;3.684;2023-02-08T11:25:54;5.50;;;4.72;;
36709;SDS011;22694;51.040;3.684;2023-02-08T11:29:04;6.60;;;5.03;;
36709;SDS011;22694;51.040;3.684;2023-02-08T11:34:41;6.18;;;4.57;;
36709;SDS011;22694;51.040;3.684;2023-02-08T11:37:14;6.55;;;4.65;;
36709;SDS011;22694;51.040;3.684;2023-02-08T11:39:54;7.03;;;4.70;;
36709;SDS011;22694;51.040;3.684;2023-02-08T11:42:34;4.80;;;4.00;;
36709;SDS011;22694;51.040;3.684;2023-02-08T11:45:02;5.50;;;4.50;;
36709;SDS011;22694;51.040;3.684;2023-02-08T11:47:33;7.25;;;4.35;;
36709;SDS011;22694;51.040;3.684;2023-02-08T11:50:16;5.17;;;3.77;;
36709;SDS011;22694;51.040;3.684;2023-02-08T11:52:54;5.70;;;4.00;;
36709;SDS011;22694;51.040;3.684;2023-02-08T11:55:24;4.10;;;3.70;;
36709;SDS011;22694;51.040;3.684;2023-02-08T11:57:53;6.57;;;3.47;;
36709;SDS011;22694;51.040;3.684;2023-02-08T12:02:49;4.35;;;3.80;;
36709;SDS011;22694;51.040;3.684;2023-02-08T12:05:16;4.90;;;3.88;;
36709;SDS011;22694;51.040;3.684;2023-02-08T12:07:55;5.53;;;3.60;;
36709;SDS011;22694;51.040;3.684;2023-02-08T12:13:32;4.38;;;3.10;;
36709;SDS011;22694;51.040;3.684;2023-02-08T12:24:35;6.00;;;3.30;;
36709;SDS011;22694;51.040;3.684;2023-02-08T12:27:29;4.07;;;3.40;;
36709;SDS011;22694;51.040;3.684;2023-02-08T12:52:56;4.65;;;2.70;;
36709;SDS011;22694;51.040;3.684;2023-02-08T12:57:59;3.20;;;2.70;;
36709;SDS011;22694;51.040;3.684;2023-02-08T13:00:45;4.28;;;2.67;;
36709;SDS011;22694;51.040;3.684;2023-02-08T13:03:21;2.83;;;2.55;;
36709;SDS011;22694;51.040;3.684;2023-02-08T13:05:49;3.63;;;2.95;;
36709;SDS011;22694;51.040;3.684;2023-02-08T13:10:54;3.22;;;2.83;;
36709;SDS011;22694;51.040;3.684;2023-02-08T13:13:33;3.38;;;2.72;;
36709;SDS011;22694;51.040;3.684;2023-02-08T13:16:02;3.35;;;2.75;;
36709;SDS011;22694;51.040;3.684;2023-02-08T13:21:23;3.10;;;2.80;;
36709;SDS011;22694;51.040;3.684;2023-02-08T13:23:54;2.70;;;2.45;;
36709;SDS011;22694;51.040;3.684;2023-02-08T13:26:22;3.13;;;2.60;;
36709;SDS011;22694;51.040;3.684;2023-02-08T13:28:58;2.40;;;2.20;;
36709;SDS011;22694;51.040;3.684;2023-02-08T13:31:27;2.85;;;2.15;;
36709;SDS011;22694;51.040;3.684;2023-02-08T13:34:04;2.95;;;2.60;;
36709;SDS011;22694;51.040;3.684;2023-02-08T13:39:00;2.53;;;2.33;;
36709;SDS011;22694;51.040;3.684;2023-02-08T13:41:29;2.65;;;2.30;;
36709;SDS011;22694;51.040;3.684;2023-02-08T13:43:56;2.72;;;2.05;;
36709;SDS011;22694;51.040;3.684;2023-02-08T13:49:00;4.15;;;2.10;;
36709;SDS011;22694;51.040;3.684;2023-02-08T13:56:42;2.60;;;1.90;;
36709;SDS011;22694;51.040;3.684;2023-02-08T14:04:53;2.45;;;1.77;;
36709;SDS011;22694;51.040;3.684;2023-02-08T14:07:42;3.25;;;1.90;;
36709;SDS011;22694;51.040;3.684;2023-02-08T14:10:22;1.83;;;1.67;;
36709;SDS011;22694;51.040;3.684;2023-02-08T14:12:53;2.03;;;1.70;;
36709;SDS011;22694;51.040;3.684;2023-02-08T14:15:34;1.98;;;1.60;;
36709;SDS011;22694;51.040;3.684;2023-02-08T14:18:01;2.72;;;1.45;;
36709;SDS011;22694;51.040;3.684;2023-02-08T14:20:30;3.33;;;1.63;;
36709;SDS011;22694;51.040;3.684;2023-02-08T14:23:00;1.42;;;1.33;;
36709;SDS011;22694;51.040;3.684;2023-02-08T14:25:50;2.03;;;1.42;;
36709;SDS011;22694;51.040;3.684;2023-02-08T14:30:56;1.55;;;1.30;;
36709;SDS011;22694;51.040;3.684;2023-02-08T14:33:26;2.20;;;1.70;;
36709;SDS011;22694;51.040;3.684;2023-02-08T14:35:56;2.03;;;1.40;;
36709;SDS011;22694;51.040;3.684;2023-02-08T14:49:38;3.38;;;1.88;;
36709;SDS011;22694;51.040;3.684;2023-02-08T14:52:11;1.50;;;1.33;;
36709;SDS011;22694;51.040;3.684;2023-02-08T14:54:47;2.60;;;1.67;;
36709;SDS011;22694;51.040;3.684;2023-02-08T14:57:24;1.50;;;1.40;;
36709;SDS011;22694;51.040;3.684;2023-02-08T14:59:53;1.65;;;1.33;;
36709;SDS011;22694;51.040;3.684;2023-02-08T15:02:22;1.33;;;1.23;;
36709;SDS011;22694;51.040;3.684;2023-02-08T15:04:50;2.05;;;1.50;;
36709;SDS011;22694;51.040;3.684;2023-02-08T15:07:30;1.30;;;1.17;;
36709;SDS011;22694;51.040;3.684;2023-02-08T15:10:08;3.15;;;1.85;;
36709;SDS011;22694;51.040;3.684;2023-02-08T15:12:37;1.83;;;1.60;;
36709;SDS011;22694;51.040;3.684;2023-02-08T15:15:04;2.20;;;1.38;;
36709;SDS011;22694;51.040;3.684;2023-02-08T15:17:36;1.67;;;1.10;;
36709;SDS011;22694;51.040;3.684;2023-02-08T15:20:18;2.00;;;1.00;;
36709;SDS011;22694;51.040;3.684;2023-02-08T15:22:46;3.17;;;1.23;;
36709;SDS011;22694;51.040;3.684;2023-02-08T15:27:53;3.53;;;1.55;;
36709;SDS011;22694;51.040;3.684;2023-02-08T15:30:34;4.45;;;1.77;;
36709;SDS011;22694;51.040;3.684;2023-02-08T15:33:02;4.55;;;1.75;;
36709;SDS011;22694;51.040;3.684;2023-02-08T15:35:33;2.40;;;1.77;;
36709;SDS011;22694;51.040;3.684;2023-02-08T15:37:59;2.28;;;1.40;;
36709;SDS011;22694;51.040;3.684;2023-02-08T15:40:30;1.95;;;1.33;;
36709;SDS011;22694;51.040;3.684;2023-02-08T15:43:08;2.78;;;1.30;;
36709;SDS011;22694;51.040;3.684;2023-02-08T15:45:36;2.97;;;1.38;;
36709;SDS011;22694;51.040;3.684;2023-02-08T15:48:03;5.88;;;1.60;;
36709;SDS011;22694;51.040;3.684;2023-02-08T15:50:30;2.38;;;1.60;;
36709;SDS011;22694;51.040;3.684;2023-02-08T15:52:59;3.65;;;1.65;;
36709;SDS011;22694;51.040;3.684;2023-02-08T15:55:29;1.75;;;1.35;;
36709;SDS011;22694;51.040;3.684;2023-02-08T15:58:02;2.05;;;1.60;;
36709;SDS011;22694;51.040;3.684;2023-02-08T16:00:33;2.22;;;1.60;;
36709;SDS011;22694;51.040;3.684;2023-02-08T16:03:08;3.55;;;1.83;;
36709;SDS011;22694;51.040;3.684;2023-02-08T16:05:43;1.95;;;1.70;;
36709;SDS011;22694;51.040;3.684;2023-02-08T16:08:17;1.95;;;1.70;;
36709;SDS011;22694;51.040;3.684;2023-02-08T16:10:47;3.67;;;1.60;;
36709;SDS011;22694;51.040;3.684;2023-02-08T16:13:19;2.30;;;1.50;;
36709;SDS011;22694;51.040;3.684;2023-02-08T16:15:48;2.22;;;2.00;;
36709;SDS011;22694;51.040;3.684;2023-02-08T16:18:31;4.13;;;2.08;;
36709;SDS011;22694;51.040;3.684;2023-02-08T16:23:53;2.08;;;1.58;;
36709;SDS011;22694;51.040;3.684;2023-02-08T16:26:36;3.27;;;2.03;;
36709;SDS011;22694;51.040;3.684;2023-02-08T16:29:22;3.83;;;1.85;;
36709;SDS011;22694;51.040;3.684;2023-02-08T16:32:34;2.90;;;2.17;;
36709;SDS011;22694;51.040;3.684;2023-02-08T16:34:46;2.67;;;1.85;;
36709;SDS011;22694;51.040;3.684;2023-02-08T16:37:25;2.47;;;1.92;;
36709;SDS011;22694;51.040;3.684;2023-02-08T16:39:52;4.65;;;2.10;;
36709;SDS011;22694;51.040;3.684;2023-02-08T16:42:19;3.75;;;2.28;;
36709;SDS011;22694;51.040;3.684;2023-02-08T16:47:34;2.72;;;1.92;;
36709;SDS011;22694;51.040;3.684;2023-02-08T16:50:00;2.70;;;2.15;;
36709;SDS011;22694;51.040;3.684;2023-02-08T16:52:26;2.38;;;1.70;;
36709;SDS011;22694;51.040;3.684;2023-02-08T16:54:52;6.30;;;2.20;;
36709;SDS011;22694;51.040;3.684;2023-02-08T16:57:18;2.70;;;2.25;;
36709;SDS011;22694;51.040;3.684;2023-02-08T16:59:43;2.30;;;2.10;;
36709;SDS011;22694;51.040;3.684;2023-02-08T17:02:10;2.65;;;1.98;;
36709;SDS011;22694;51.040;3.684;2023-02-08T17:04:37;4.25;;;2.25;;
36709;SDS011;22694;51.040;3.684;2023-02-08T17:07:03;3.78;;;2.50;;
36709;SDS011;22694;51.040;3.684;2023-02-08T17:09:29;2.67;;;2.30;;
36709;SDS011;22694;51.040;3.684;2023-02-08T17:11:54;4.38;;;2.33;;
36709;SDS011;22694;51.040;3.684;2023-02-08T17:14:20;3.88;;;2.53;;
36709;SDS011;22694;51.040;3.684;2023-02-08T17:16:46;3.28;;;2.10;;
36709;SDS011;22694;51.040;3.684;2023-02-08T17:19:15;4.88;;;2.15;;
36709;SDS011;22694;51.040;3.684;2023-02-08T17:21:41;3.10;;;2.22;;
36709;SDS011;22694;51.040;3.684;2023-02-08T17:24:07;3.28;;;2.08;;
36709;SDS011;22694;51.040;3.684;2023-02-08T17:26:35;4.03;;;2.65;;
36709;SDS011;22694;51.040;3.684;2023-02-08T17:29:03;3.42;;;2.45;;
36709;SDS011;22694;51.040;3.684;2023-02-08T17:31:29;3.50;;;2.63;;
36709;SDS011;22694;51.040;3.684;2023-02-08T17:33:55;4.22;;;2.60;;
36709;SDS011;22694;51.040;3.684;2023-02-08T17:38:54;3.15;;;2.42;;
36709;SDS011;22694;51.040;3.684;2023-02-08T17:41:20;4.65;;;2.42;;
36709;SDS011;22694;51.040;3.684;2023-02-08T17:43:49;3.20;;;2.60;;
36709;SDS011;22694;51.040;3.684;2023-02-08T17:46:20;3.38;;;2.38;;
36709;SDS011;22694;51.040;3.684;2023-02-08T17:48:48;5.45;;;2.42;;
36709;SDS011;22694;51.040;3.684;2023-02-08T17:51:17;4.88;;;2.30;;
36709;SDS011;22694;51.040;3.684;2023-02-08T17:53:47;4.63;;;2.88;;
36709;SDS011;22694;51.040;3.684;2023-02-08T17:56:14;2.58;;;2.28;;